Time;durP1;ratioP1;P1;durP2;ratioP2;P2;SDS_P1;SDS_P2;PMS_P1;PMS_P2;Temp;Humidity;BMP_temperature;BMP_pressure;BME280_temperature;BME280_humidity;BME280_pressure;Samples;Min_cycle;Max_cycle;Signal;HPM_P1;HPM_P2
2023/07/25 00:01:12;;;;;;;9.27;2.15;;;14.30;99.90;;;;;;4938630;29;39370;-76
2023/07/25 00:03:38;;;;;;;8.13;2.10;;;14.30;99.90;;;;;;4923770;29;36873;-77
2023/07/25 00:06:04;;;;;;;7.70;2.10;;;14.30;99.90;;;;;;4931179;29;39678;-76
2023/07/25 00:08:31;;;;;;;9.57;2.20;;;14.30;99.90;;;;;;4927138;28;39961;-76
2023/07/25 00:10:58;;;;;;;8.68;2.00;;;14.30;99.90;;;;;;4932084;28;38146;-77
2023/07/25 00:13:25;;;;;;;3.40;1.60;;;14.30;99.90;;;;;;4938480;28;37356;-77
2023/07/25 00:15:51;;;;;;;9.07;1.98;;;14.30;99.90;;;;;;4939628;28;38744;-77
2023/07/25 00:18:17;;;;;;;5.43;1.80;;;14.30;99.90;;;;;;4936751;28;38886;-76
2023/07/25 00:20:44;;;;;;;9.32;2.10;;;14.30;99.90;;;;;;4936884;28;38998;-76
2023/07/25 00:23:10;;;;;;;7.95;2.03;;;14.30;99.90;;;;;;4914757;29;36020;-77
2023/07/25 00:25:36;;;;;;;6.32;1.77;;;14.30;99.90;;;;;;4936332;29;39311;-77
2023/07/25 00:28:02;;;;;;;6.20;2.05;;;14.30;99.90;;;;;;4942024;28;40378;-77
2023/07/25 00:30:29;;;;;;;7.72;2.83;;;14.30;99.90;;;;;;4918349;29;36749;-76
2023/07/25 00:32:55;;;;;;;9.65;2.25;;;14.30;99.90;;;;;;4937398;28;37298;-77
2023/07/25 00:35:21;;;;;;;8.88;2.30;;;14.20;99.90;;;;;;4922729;29;37899;-76
2023/07/25 00:37:47;;;;;;;9.60;2.22;;;14.20;99.90;;;;;;4936650;28;38641;-77
2023/07/25 00:40:13;;;;;;;7.07;1.77;;;14.20;99.90;;;;;;4917638;29;37970;-76
2023/07/25 00:42:39;;;;;;;7.78;1.60;;;14.20;99.90;;;;;;4918990;29;38896;-76
2023/07/25 00:45:06;;;;;;;11.45;2.63;;;14.20;99.90;;;;;;4936012;29;38958;-77
2023/07/25 00:47:33;;;;;;;8.23;2.13;;;14.10;99.90;;;;;;4921325;29;40161;-77
2023/07/25 00:49:59;;;;;;;9.10;2.17;;;14.10;99.90;;;;;;4936455;29;38087;-76
2023/07/25 00:52:25;;;;;;;3.90;1.55;;;14.10;99.90;;;;;;4935880;29;38161;-76
2023/07/25 00:54:51;;;;;;;8.80;1.92;;;14.10;99.90;;;;;;4921538;29;38320;-77
2023/07/25 00:57:19;;;;;;;10.13;2.80;;;14.00;99.90;;;;;;4913648;29;39103;-75
2023/07/25 00:59:47;;;;;;;8.23;2.40;;;14.00;99.90;;;;;;4927561;29;38902;-78
2023/07/25 01:04:58;;;;;;;8.50;2.00;;;13.90;99.90;;;;;;5397843;23;20134;-82
2023/07/25 01:07:26;;;;;;;8.18;1.95;;;13.80;99.90;;;;;;4942555;28;39817;-82
2023/07/25 01:09:57;;;;;;;7.28;2.15;;;13.80;99.90;;;;;;4927659;28;39030;-81
2023/07/25 01:14:59;;;;;;;7.40;2.08;;;13.70;99.90;;;;;;5643140;23;20040;-84
2023/07/25 01:22:38;;;;;;;4.50;1.90;;;13.60;99.90;;;;;;5622632;23;20036;-82
2023/07/25 01:27:41;;;;;;;11.82;2.35;;;13.60;99.90;;;;;;5381724;23;20046;-81
2023/07/25 01:30:08;;;;;;;6.88;2.00;;;13.70;99.90;;;;;;5199710;23;39645;-80
2023/07/25 01:32:34;;;;;;;6.47;1.88;;;13.70;99.90;;;;;;4961670;28;38694;-81
2023/07/25 01:35:20;;;;;;;8.50;2.35;;;13.70;99.90;;;;;;4961049;28;38827;-81
2023/07/25 01:37:55;;;;;;;9.63;2.20;;;13.70;99.90;;;;;;4959668;28;48210;-82
2023/07/25 01:40:40;;;;;;;6.43;1.70;;;13.70;99.90;;;;;;4960695;28;39439;-81
2023/07/25 01:43:12;;;;;;;9.02;1.90;;;13.70;99.90;;;;;;4944249;28;37471;-81
2023/07/25 01:45:39;;;;;;;7.05;1.98;;;13.80;99.90;;;;;;5066559;23;40292;-82
2023/07/25 01:48:28;;;;;;;4.82;1.70;;;13.80;99.90;;;;;;4975816;28;39856;-82
2023/07/25 01:53:30;;;;;;;5.88;1.98;;;13.80;99.90;;;;;;5949200;23;20024;-81
2023/07/25 01:56:05;;;;;;;5.90;1.70;;;13.80;99.90;;;;;;4935273;28;36038;-82
2023/07/25 01:58:31;;;;;;;6.43;1.65;;;13.80;99.90;;;;;;4920523;28;48097;-81
2023/07/25 02:01:05;;;;;;;5.35;1.50;;;13.80;99.90;;;;;;4923994;29;37651;-81
2023/07/25 02:03:47;;;;;;;5.15;1.58;;;13.80;99.90;;;;;;4941879;28;50259;-80
2023/07/25 02:08:49;;;;;;;6.45;2.08;;;13.70;99.90;;;;;;5968135;23;20030;-83
2023/07/25 02:11:30;;;;;;;5.80;1.63;;;13.70;99.90;;;;;;4943097;28;35369;-82
2023/07/25 02:14:03;;;;;;;5.82;1.80;;;13.70;99.90;;;;;;4945302;28;37544;-82
2023/07/25 02:16:46;;;;;;;11.13;1.83;;;13.70;99.90;;;;;;4925523;28;48198;-82
2023/07/25 02:19:24;;;;;;;8.35;2.00;;;13.70;99.90;;;;;;4947115;28;39819;-82
2023/07/25 02:21:50;;;;;;;7.78;2.13;;;13.70;99.90;;;;;;4960590;28;39612;-82
2023/07/25 02:25:12;;;;;;;6.40;2.00;;;13.70;99.90;;;;;;4943195;28;37203;-83
2023/07/25 02:27:38;;;;;;;4.88;1.70;;;13.60;99.90;;;;;;4960672;28;50238;-81
2023/07/25 02:30:11;;;;;;;3.53;1.48;;;13.60;99.90;;;;;;4944986;28;38576;-82
2023/07/25 02:32:48;;;;;;;4.35;1.40;;;13.60;99.90;;;;;;4960531;28;50188;-82
2023/07/25 02:35:16;;;;;;;5.28;1.48;;;13.60;99.90;;;;;;4960319;28;38608;-82
2023/07/25 02:37:42;;;;;;;5.80;1.63;;;13.60;99.90;;;;;;4960770;28;42108;-81
2023/07/25 02:40:10;;;;;;;5.78;1.67;;;13.60;99.90;;;;;;4944511;28;38107;-82
2023/07/25 02:42:36;;;;;;;5.20;1.52;;;13.60;99.90;;;;;;4944403;28;37920;-82
2023/07/25 02:47:38;;;;;;;5.78;1.98;;;13.60;99.90;;;;;;5769835;23;20044;-83
2023/07/25 02:53:40;;;;;;;5.38;2.05;;;13.60;99.90;;;;;;4980256;23;50703;-83
2023/07/25 02:56:06;;;;;;;6.57;1.77;;;13.70;99.90;;;;;;4950465;28;35954;-80
2023/07/25 02:58:39;;;;;;;6.10;1.92;;;13.70;99.90;;;;;;4959391;28;38108;-81
2023/07/25 03:11:26;;;;;;;9.10;1.90;;;13.70;99.90;;;;;;4962024;28;50438;-80
2023/07/25 03:13:52;;;;;;;9.07;1.90;;;13.80;99.90;;;;;;4962171;28;48836;-81
2023/07/25 03:16:31;;;;;;;9.65;2.25;;;13.80;99.90;;;;;;4963329;28;38333;-82
2023/07/25 03:19:09;;;;;;;4.70;1.63;;;13.80;99.90;;;;;;5058299;23;38662;-81
2023/07/25 03:22:03;;;;;;;5.25;1.90;;;13.70;99.90;;;;;;4961700;28;48356;-83
2023/07/25 03:28:00;;;;;;;9.80;2.30;;;13.80;99.90;;;;;;4963254;28;49797;-82
2023/07/25 03:30:49;;;;;;;11.23;2.40;;;14.00;99.90;;;;;;4963540;28;38725;-82
2023/07/25 03:33:23;;;;;;;10.57;2.55;;;14.20;99.90;;;;;;4962519;28;39380;-82
2023/07/25 03:35:57;;;;;;;11.13;2.30;;;14.30;99.90;;;;;;4963268;28;38421;-82
2023/07/25 03:41:02;;;;;;;9.15;1.83;;;14.40;99.90;;;;;;5184997;23;20036;-82
2023/07/25 03:43:29;;;;;;;9.55;1.80;;;14.40;99.90;;;;;;5230014;23;48406;-81
2023/07/25 03:45:55;;;;;;;8.52;1.88;;;14.50;99.90;;;;;;4965945;28;37710;-83
2023/07/25 03:48:21;;;;;;;7.53;1.88;;;14.50;99.90;;;;;;4963505;28;37380;-83
2023/07/25 03:54:10;;;;;;;10.00;1.73;;;14.40;99.90;;;;;;4961819;28;50098;-82
2023/07/25 04:02:14;;;;;;;6.82;2.33;;;14.50;99.90;;;;;;5658603;23;20060;-83
2023/07/25 04:05:07;;;;;;;10.25;2.05;;;14.40;99.90;;;;;;4960268;28;38344;-82
2023/07/25 04:10:09;;;;;;;10.50;2.40;;;14.50;99.90;;;;;;5575698;23;20047;-83
2023/07/25 04:18:49;;;;;;;5.50;1.73;;;14.50;99.90;;;;;;4962602;28;50055;-81
2023/07/25 04:21:15;;;;;;;6.35;1.83;;;14.50;99.90;;;;;;4961033;28;38095;-81
2023/07/25 04:23:42;;;;;;;7.43;2.05;;;14.50;99.90;;;;;;4961624;28;37539;-81
2023/07/25 04:26:11;;;;;;;10.60;2.30;;;14.50;99.90;;;;;;4960852;28;38920;-80
2023/07/25 04:28:48;;;;;;;13.05;2.22;;;14.40;99.90;;;;;;4961389;28;39517;-81
2023/07/25 04:31:15;;;;;;;5.85;2.17;;;14.40;99.90;;;;;;4961374;28;41385;-81
2023/07/25 04:33:42;;;;;;;7.75;2.25;;;14.40;99.90;;;;;;4960077;28;38578;-81
2023/07/25 04:36:32;;;;;;;9.15;2.10;;;14.40;99.90;;;;;;4954878;28;40119;-80
2023/07/25 04:38:58;;;;;;;12.23;2.65;;;14.40;99.90;;;;;;4959446;29;38690;-80
2023/07/25 04:41:24;;;;;;;8.13;2.10;;;14.40;99.90;;;;;;4954471;28;38316;-81
2023/07/25 04:44:30;;;;;;;7.05;2.22;;;14.40;99.90;;;;;;4958537;28;38768;-83
2023/07/25 04:46:56;;;;;;;12.95;2.17;;;14.50;99.90;;;;;;4955072;28;50130;-83
2023/07/25 04:49:33;;;;;;;8.57;2.10;;;14.50;99.90;;;;;;4960279;28;38798;-81
2023/07/25 04:57:40;;;;;;;11.30;1.92;;;14.60;99.90;;;;;;5289461;23;20051;-83
2023/07/25 05:00:06;;;;;;;6.78;2.00;;;14.60;99.90;;;;;;4954944;28;37639;-83
2023/07/25 05:02:50;;;;;;;6.57;1.60;;;14.60;99.90;;;;;;4940414;28;38452;-82
2023/07/25 05:05:16;;;;;;;5.85;1.58;;;14.70;99.90;;;;;;5035263;23;38739;-84
2023/07/25 05:07:42;;;;;;;5.18;1.80;;;14.70;99.90;;;;;;4958809;29;37979;-83
2023/07/25 05:12:53;;;;;;;7.60;1.48;;;14.80;99.90;;;;;;5067102;23;20044;-83
2023/07/25 05:15:19;;;;;;;9.77;2.25;;;14.80;99.90;;;;;;4941287;28;36069;-83
2023/07/25 05:17:45;;;;;;;5.53;1.55;;;14.80;99.90;;;;;;4937051;29;39078;-83
2023/07/25 05:20:12;;;;;;;7.15;1.30;;;14.90;99.90;;;;;;4934994;28;37667;-86
2023/07/25 05:22:38;;;;;;;6.82;1.50;;;14.90;99.90;;;;;;4933984;28;37036;-85
2023/07/25 05:25:05;;;;;;;7.30;1.23;;;14.90;99.90;;;;;;4929285;28;36356;-85
2023/07/25 05:30:26;;;;;;;4.55;1.40;;;15.00;99.90;;;;;;4982177;23;20476;-82
2023/07/25 05:32:52;;;;;;;10.60;1.40;;;15.00;99.90;;;;;;4936034;28;37631;-83
2023/07/25 05:35:18;;;;;;;6.90;1.30;;;15.10;99.90;;;;;;4930774;28;38022;-83
2023/07/25 05:37:44;;;;;;;6.68;1.50;;;15.10;99.90;;;;;;4930516;28;38542;-83
2023/07/25 05:40:10;;;;;;;3.90;1.27;;;15.10;99.90;;;;;;4931827;28;38766;-84
2023/07/25 05:45:23;;;;;;;8.40;1.23;;;15.20;99.90;;;;;;4961148;23;20048;-83
2023/07/25 05:47:49;;;;;;;8.45;1.20;;;15.30;99.90;;;;;;4923130;28;38905;-85
2023/07/25 05:50:15;;;;;;;5.15;1.27;;;15.40;99.90;;;;;;4929000;28;40381;-85
2023/07/25 05:52:41;;;;;;;6.32;1.35;;;15.40;99.90;;;;;;4930286;28;37830;-85
2023/07/25 05:55:07;;;;;;;5.22;1.20;;;15.50;99.90;;;;;;4931518;28;38092;-85
2023/07/25 05:57:33;;;;;;;4.72;1.17;;;15.70;99.90;;;;;;4931359;28;38655;-86
2023/07/25 05:59:59;;;;;;;6.38;1.25;;;15.80;99.90;;;;;;4931236;28;38463;-86
2023/07/25 06:02:26;;;;;;;5.10;1.10;;;15.90;99.90;;;;;;4929614;28;38415;-86
2023/07/25 06:04:52;;;;;;;3.50;1.30;;;16.10;99.90;;;;;;4928621;29;38957;-85
2023/07/25 06:07:18;;;;;;;4.65;1.90;;;16.30;99.90;;;;;;4924887;28;39384;-85
2023/07/25 06:09:44;;;;;;;6.28;1.30;;;16.50;99.90;;;;;;4930710;28;38786;-86
2023/07/25 06:12:11;;;;;;;4.82;1.02;;;16.70;99.90;;;;;;4928176;28;39714;-85
2023/07/25 06:14:37;;;;;;;8.43;1.13;;;16.90;99.90;;;;;;4929974;29;37987;-85
2023/07/25 06:17:03;;;;;;;5.50;1.02;;;17.00;99.00;;;;;;4927997;28;37808;-85
2023/07/25 06:19:30;;;;;;;4.10;1.10;;;17.20;99.90;;;;;;4933240;28;40506;-84
2023/07/25 06:21:56;;;;;;;6.05;1.25;;;17.40;99.90;;;;;;4930151;28;38875;-85
2023/07/25 06:24:22;;;;;;;6.95;1.38;;;17.60;99.90;;;;;;4929816;28;38497;-85
2023/07/25 06:26:48;;;;;;;6.13;1.45;;;17.70;93.10;;;;;;4929822;29;37989;-85
2023/07/25 06:29:14;;;;;;;4.57;1.00;;;17.70;91.70;;;;;;4930958;28;39078;-85
2023/07/25 06:31:41;;;;;;;4.80;1.00;;;17.80;91.50;;;;;;4929350;28;39889;-85
2023/07/25 06:34:07;;;;;;;5.55;1.23;;;18.00;90.80;;;;;;4928864;28;37907;-84
2023/07/25 06:36:34;;;;;;;5.65;1.20;;;18.10;79.20;;;;;;4936972;28;39682;-84
2023/07/25 06:39:00;;;;;;;4.22;0.82;;;18.20;87.70;;;;;;4931096;28;39250;-84
2023/07/25 06:41:26;;;;;;;5.43;1.08;;;18.20;71.60;;;;;;4928290;29;38806;-85
2023/07/25 06:43:53;;;;;;;8.55;1.38;;;18.10;85.70;;;;;;4929890;29;37921;-86
2023/07/25 06:46:21;;;;;;;7.88;1.25;;;18.30;72.00;;;;;;4925800;29;39622;-84
2023/07/25 06:48:48;;;;;;;4.53;1.45;;;18.40;63.40;;;;;;4928490;29;38149;-85
2023/07/25 06:51:14;;;;;;;4.35;0.77;;;18.40;55.80;;;;;;4926501;28;38807;-85
2023/07/25 06:53:40;;;;;;;3.78;0.90;;;18.30;56.70;;;;;;4929320;28;37374;-84
2023/07/25 06:56:06;;;;;;;3.95;0.60;;;18.00;59.20;;;;;;4927735;28;40920;-86
2023/07/25 06:58:33;;;;;;;5.65;1.02;;;17.90;73.70;;;;;;4930344;28;38411;-85
2023/07/25 07:00:59;;;;;;;4.75;0.90;;;18.00;75.60;;;;;;4929776;28;39096;-85
2023/07/25 07:03:25;;;;;;;4.38;0.90;;;18.20;79.90;;;;;;4928819;28;38891;-81
2023/07/25 07:05:55;;;;;;;6.22;0.80;;;18.70;89.40;;;;;;4926699;28;37964;-80
2023/07/25 07:08:22;;;;;;;3.88;1.00;;;19.00;61.70;;;;;;4927482;28;39045;-80
2023/07/25 07:10:53;;;;;;;5.20;1.00;;;19.20;55.80;;;;;;4930770;28;37675;-78
2023/07/25 07:13:20;;;;;;;6.20;0.93;;;19.20;62.00;;;;;;4929344;28;36101;-79
2023/07/25 07:15:47;;;;;;;7.03;1.20;;;18.90;68.70;;;;;;4930165;28;39655;-78
2023/07/25 07:18:13;;;;;;;2.20;0.70;;;18.30;58.10;;;;;;4930449;28;38210;-80
2023/07/25 07:20:43;;;;;;;5.00;0.82;;;17.80;66.60;;;;;;4930095;28;38398;-80
2023/07/25 07:23:09;;;;;;;5.97;1.13;;;17.60;61.90;;;;;;4930861;28;37965;-80
2023/07/25 07:25:36;;;;;;;6.13;1.15;;;17.80;60.90;;;;;;4928207;29;37525;-81
2023/07/25 07:28:03;;;;;;;4.32;0.95;;;18.00;48.90;;;;;;4933378;28;39379;-80
2023/07/25 07:30:29;;;;;;;3.67;0.90;;;18.20;51.80;;;;;;4930227;28;48583;-81
2023/07/25 07:32:56;;;;;;;4.50;1.35;;;18.10;44.30;;;;;;4930534;29;36636;-80
2023/07/25 07:35:31;;;;;;;5.85;0.90;;;18.10;47.00;;;;;;4928175;28;37787;-79
2023/07/25 07:37:57;;;;;;;6.95;1.08;;;18.10;51.20;;;;;;4930685;28;38596;-79
2023/07/25 07:40:24;;;;;;;3.88;0.60;;;17.80;47.90;;;;;;4913823;28;38239;-79
2023/07/25 07:42:50;;;;;;;4.18;0.60;;;17.80;56.60;;;;;;4928692;29;36048;-79
2023/07/25 07:45:16;;;;;;;4.18;0.98;;;17.80;60.80;;;;;;4928425;28;39208;-80
2023/07/25 07:47:42;;;;;;;4.88;0.88;;;17.70;81.40;;;;;;4930217;28;39474;-80
2023/07/25 07:50:09;;;;;;;4.35;0.73;;;17.40;48.90;;;;;;4922234;28;37281;-79
2023/07/25 07:52:40;;;;;;;3.28;0.90;;;17.20;61.40;;;;;;4930785;29;37643;-79
2023/07/25 07:55:10;;;;;;;5.00;0.88;;;17.60;85.20;;;;;;4931482;28;37646;-79
2023/07/25 07:57:44;;;;;;;7.47;1.05;;;18.40;44.90;;;;;;4931337;29;40219;-80
2023/07/25 08:00:13;;;;;;;4.55;0.80;;;18.90;35.50;;;;;;4931772;29;38614;-80
2023/07/25 08:02:44;;;;;;;3.42;0.60;;;19.40;28.80;;;;;;4930407;28;38109;-79
2023/07/25 08:05:11;;;;;;;5.85;1.00;;;19.90;50.60;;;;;;4930647;28;39962;-78
2023/07/25 08:07:38;;;;;;;4.57;0.80;;;20.20;27.50;;;;;;4930470;28;39136;-80
2023/07/25 08:10:04;;;;;;;5.63;1.00;;;19.60;28.00;;;;;;4933762;28;38593;-80
2023/07/25 08:12:31;;;;;;;5.53;1.48;;;18.80;36.40;;;;;;4930217;29;47210;-79
2023/07/25 08:14:57;;;;;;;6.22;0.90;;;18.20;59.80;;;;;;4932929;29;39138;-79
2023/07/25 08:17:23;;;;;;;4.82;0.93;;;17.80;65.10;;;;;;4934318;28;38581;-79
2023/07/25 08:19:50;;;;;;;2.53;0.60;;;17.50;81.00;;;;;;4934613;28;38986;-78
2023/07/25 08:22:16;;;;;;;5.88;0.88;;;17.30;87.50;;;;;;4931001;28;38119;-78
2023/07/25 08:24:43;;;;;;;5.45;1.13;;;17.50;92.70;;;;;;4933139;28;37995;-79
2023/07/25 08:27:09;;;;;;;6.18;1.00;;;18.30;91.40;;;;;;4930571;28;38522;-79
2023/07/25 08:29:43;;;;;;;4.80;0.90;;;19.30;58.20;;;;;;4930586;29;38876;-78
2023/07/25 08:32:09;;;;;;;4.15;0.75;;;19.60;29.40;;;;;;4930235;28;37921;-79
2023/07/25 08:34:37;;;;;;;5.05;1.05;;;19.40;38.40;;;;;;4927687;28;38023;-79
2023/07/25 08:37:04;;;;;;;1.90;0.43;;;18.70;30.00;;;;;;4931409;28;39200;-80
2023/07/25 08:39:31;;;;;;;3.25;0.70;;;18.20;51.00;;;;;;4932010;28;39057;-79
2023/07/25 08:41:59;;;;;;;5.90;0.80;;;17.80;45.20;;;;;;4931162;29;37480;-80
2023/07/25 08:44:27;;;;;;;2.20;0.60;;;17.80;53.60;;;;;;4930227;28;40723;-79
2023/07/25 08:46:56;;;;;;;2.33;0.50;;;17.90;68.90;;;;;;4929805;29;37802;-79
2023/07/25 08:49:24;;;;;;;2.20;0.50;;;18.00;62.80;;;;;;4925097;28;36977;-80
2023/07/25 08:51:57;;;;;;;3.00;0.77;;;18.40;41.10;;;;;;4933534;28;38382;-80
2023/07/25 08:54:56;;;;;;;2.90;0.60;;;18.70;35.20;;;;;;4931678;28;38983;-79
2023/07/25 08:57:26;;;;;;;5.60;0.85;;;18.50;19.50;;;;;;4905654;28;39046;-80
2023/07/25 08:59:53;;;;;;;3.00;0.90;;;18.10;32.30;;;;;;4930834;29;38783;-79
2023/07/25 09:02:21;;;;;;;2.67;0.60;;;18.30;41.70;;;;;;4928654;28;36218;-79
2023/07/25 09:04:50;;;;;;;4.43;0.70;;;19.00;38.30;;;;;;4930968;29;39332;-80
2023/07/25 09:07:16;;;;;;;2.33;0.70;;;19.80;18.70;;;;;;4929189;28;40000;-79
2023/07/25 09:09:43;;;;;;;4.45;0.77;;;20.30;25.90;;;;;;4930567;28;37253;-79
2023/07/25 09:12:09;;;;;;;5.15;0.60;;;20.90;1.00;;;;;;4931270;28;37348;-79
2023/07/25 09:14:41;;;;;;;3.13;0.60;;;20.90;1.00;;;;;;4923056;29;39704;-79
2023/07/25 09:17:07;;;;;;;4.50;1.05;;;21.30;10.30;;;;;;4930572;28;38507;-79
2023/07/25 09:19:33;;;;;;;3.35;0.68;;;21.70;1.00;;;;;;4930659;29;38770;-79
2023/07/25 09:22:00;;;;;;;3.85;0.75;;;21.70;1.00;;;;;;4928818;29;38176;-80
2023/07/25 09:24:37;;;;;;;5.88;0.65;;;21.60;1.00;;;;;;4929719;29;39403;-80
2023/07/25 09:27:13;;;;;;;4.95;0.68;;;22.00;1.00;;;;;;4932410;28;37977;-80
2023/07/25 09:29:39;;;;;;;1.58;0.57;;;21.70;1.00;;;;;;4930266;28;48509;-79
2023/07/25 09:32:22;;;;;;;2.38;0.47;;;20.70;1.00;;;;;;4931146;28;37194;-80
2023/07/25 09:34:59;;;;;;;2.83;0.52;;;19.90;1.00;;;;;;4929399;29;40689;-80
2023/07/25 09:37:25;;;;;;;2.92;0.80;;;19.80;1.00;;;;;;4928836;28;37847;-79
2023/07/25 09:39:51;;;;;;;4.07;0.47;;;20.10;1.00;;;;;;4929609;28;38209;-80
2023/07/25 09:42:22;;;;;;;4.15;0.68;;;20.60;1.00;;;;;;4930930;28;37423;-79
2023/07/25 09:44:50;;;;;;;5.00;1.23;;;21.30;1.00;;;;;;4927650;29;40344;-80
2023/07/25 09:47:29;;;;;;;3.15;0.60;;;21.50;1.00;;;;;;4929112;28;38516;-80
2023/07/25 09:49:56;;;;;;;2.67;0.68;;;21.10;1.00;;;;;;4923903;28;39167;-79
2023/07/25 09:52:37;;;;;;;1.55;0.60;;;20.40;1.00;;;;;;4924856;28;37950;-80
2023/07/25 09:55:04;;;;;;;5.78;1.15;;;20.00;1.00;;;;;;4931274;28;40034;-80
2023/07/25 09:57:31;;;;;;;5.18;0.75;;;20.30;99.90;;;;;;4925316;29;48168;-80
2023/07/25 09:59:58;;;;;;;3.65;0.55;;;20.70;1.00;;;;;;4933843;28;39873;-80
2023/07/25 10:02:25;;;;;;;2.70;0.70;;;20.90;99.90;;;;;;4930745;28;39074;-80
2023/07/25 10:04:55;;;;;;;3.42;0.65;;;21.00;1.00;;;;;;4922282;28;39880;-80
2023/07/25 10:07:24;;;;;;;0.98;0.68;;;21.10;1.00;;;;;;4930144;28;39190;-80
2023/07/25 10:09:55;;;;;;;2.53;0.70;;;21.50;99.90;;;;;;4929496;29;37339;-79
2023/07/25 10:12:21;;;;;;;1.70;0.70;;;21.90;1.00;;;;;;4925075;28;37236;-80
2023/07/25 10:14:47;;;;;;;2.55;0.60;;;21.60;99.90;;;;;;4929118;29;40864;-79
2023/07/25 10:17:13;;;;;;;1.70;0.43;;;21.10;1.00;;;;;;4931029;28;38683;-80
2023/07/25 10:19:46;;;;;;;3.85;0.90;;;21.00;99.90;;;;;;4929553;28;38807;-80
2023/07/25 10:22:12;;;;;;;2.50;0.50;;;21.50;1.00;;;;;;4928442;28;36351;-80
2023/07/25 10:24:38;;;;;;;4.63;0.52;;;21.70;1.00;;;;;;4929229;29;38669;-80
2023/07/25 10:27:09;;;;;;;2.50;0.50;;;21.40;99.90;;;;;;4928612;28;37784;-79
2023/07/25 10:29:42;;;;;;;2.67;0.60;;;21.50;1.00;;;;;;4928864;29;39843;-80
2023/07/25 10:32:11;;;;;;;1.25;0.35;;;22.00;1.00;;;;;;4914619;28;37317;-80
2023/07/25 10:34:51;;;;;;;1.65;0.50;;;21.50;33.70;;;;;;4930034;28;40544;-80
2023/07/25 10:37:29;;;;;;;2.45;0.57;;;20.90;99.90;;;;;;4929628;28;38277;-80
2023/07/25 10:40:23;;;;;;;2.22;0.57;;;21.20;1.00;;;;;;4927872;28;37893;-80
2023/07/25 10:43:01;;;;;;;1.85;0.40;;;21.10;1.00;;;;;;4926587;29;47762;-80
2023/07/25 10:45:33;;;;;;;3.22;0.55;;;21.00;99.90;;;;;;4885962;29;47775;-80
2023/07/25 10:48:00;;;;;;;5.13;0.63;;;21.10;1.00;;;;;;4889804;29;38730;-80
2023/07/25 10:50:28;;;;;;;2.83;0.80;;;21.00;1.00;;;;;;4917424;29;37325;-80
2023/07/25 10:52:54;;;;;;;3.97;0.80;;;21.30;1.00;;;;;;4917265;29;35820;-80
2023/07/25 10:55:20;;;;;;;1.83;0.43;;;21.60;1.00;;;;;;4889888;29;38130;-80
2023/07/25 10:58:10;;;;;;;1.65;0.40;;;21.30;1.00;;;;;;4904221;29;38669;-80
2023/07/25 11:00:36;;;;;;;2.13;0.50;;;20.50;1.00;;;;;;4908359;29;48737;-80
2023/07/25 11:03:32;;;;;;;2.05;0.38;;;20.10;1.00;;;;;;4915944;29;37452;-80
2023/07/25 11:06:08;;;;;;;3.22;0.60;;;20.60;1.00;;;;;;4921088;29;38101;-79
2023/07/25 11:08:39;;;;;;;4.85;0.68;;;20.50;99.90;;;;;;4922768;29;47728;-80
2023/07/25 11:11:10;;;;;;;2.72;0.73;;;20.00;99.90;;;;;;4919478;29;37664;-80
2023/07/25 11:13:38;;;;;;;3.88;0.70;;;20.10;99.90;;;;;;4911465;29;36995;-81
2023/07/25 11:16:09;;;;;;;2.97;0.65;;;20.20;1.00;;;;;;4919310;29;38036;-81
2023/07/25 11:18:37;;;;;;;2.53;0.28;;;20.20;1.00;;;;;;4899678;29;37309;-81
2023/07/25 11:21:07;;;;;;;1.95;0.40;;;20.20;1.00;;;;;;4910850;29;37947;-80
2023/07/25 11:23:34;;;;;;;1.48;0.40;;;19.90;1.00;;;;;;4895098;29;36341;-81
2023/07/25 11:26:08;;;;;;;5.40;0.70;;;19.60;1.00;;;;;;4892112;29;37760;-80
2023/07/25 11:28:38;;;;;;;3.03;0.60;;;20.00;1.00;;;;;;4913548;29;47231;-81
2023/07/25 11:31:04;;;;;;;3.92;0.90;;;20.50;99.90;;;;;;4920600;29;39393;-81
2023/07/25 11:33:43;;;;;;;1.98;0.40;;;21.10;1.00;;;;;;4897213;29;37795;-81
2023/07/25 11:36:09;;;;;;;3.58;0.52;;;21.00;1.00;;;;;;4913055;29;38429;-81
2023/07/25 11:38:35;;;;;;;2.20;0.50;;;20.70;1.00;;;;;;4895221;29;38884;-80
2023/07/25 11:41:03;;;;;;;4.25;0.50;;;20.20;99.90;;;;;;4889802;29;38809;-82
2023/07/25 11:43:31;;;;;;;4.15;0.45;;;20.20;1.00;;;;;;4916430;29;48828;-81
2023/07/25 11:45:57;;;;;;;2.15;0.47;;;20.60;99.90;;;;;;4922946;29;39097;-81
2023/07/25 11:48:24;;;;;;;1.13;0.32;;;21.10;1.00;;;;;;4921514;29;40147;-81
2023/07/25 11:50:51;;;;;;;4.45;0.45;;;21.20;1.00;;;;;;4917492;29;39674;-81
2023/07/25 11:53:22;;;;;;;2.03;0.30;;;21.50;1.00;;;;;;4926091;29;38886;-81
2023/07/25 11:55:55;;;;;;;3.55;0.60;;;21.90;99.90;;;;;;4914976;29;40450;-81
2023/07/25 11:58:25;;;;;;;1.55;0.40;;;21.80;1.00;;;;;;4923576;28;37658;-81
2023/07/25 12:00:54;;;;;;;3.63;1.20;;;21.00;1.00;;;;;;4933248;28;38148;-81
2023/07/25 12:03:22;;;;;;;2.13;0.65;;;20.80;1.00;;;;;;4932550;29;37935;-82
2023/07/25 12:05:54;;;;;;;1.98;0.40;;;20.10;1.00;;;;;;4932976;28;38723;-81
2023/07/25 12:08:34;;;;;;;1.58;0.50;;;19.90;1.00;;;;;;4922294;28;38364;-81
2023/07/25 12:11:02;;;;;;;3.92;0.95;;;20.40;99.90;;;;;;4923619;29;37723;-81
2023/07/25 12:13:29;;;;;;;1.05;0.32;;;20.90;99.90;;;;;;4917943;29;47487;-81
2023/07/25 12:15:56;;;;;;;1.35;0.35;;;21.20;1.00;;;;;;4933213;28;38472;-81
2023/07/25 12:18:34;;;;;;;1.02;0.50;;;21.00;99.90;;;;;;4915042;29;39894;-81
2023/07/25 12:21:02;;;;;;;1.30;0.30;;;21.60;99.90;;;;;;4919198;29;38811;-81
2023/07/25 12:23:38;;;;;;;1.10;0.60;;;21.70;1.00;;;;;;4924635;29;47343;-81
2023/07/25 12:26:07;;;;;;;2.10;0.60;;;21.60;1.00;;;;;;4914904;28;39092;-81
2023/07/25 12:28:44;;;;;;;1.50;0.32;;;22.00;1.00;;;;;;4917833;29;37509;-81
2023/07/25 12:31:12;;;;;;;1.70;0.40;;;22.50;1.00;;;;;;4916968;29;38881;-80
2023/07/25 12:33:39;;;;;;;2.35;0.60;;;22.70;1.00;;;;;;4918097;29;36429;-81
2023/07/25 12:36:06;;;;;;;2.75;0.50;;;22.00;1.00;;;;;;4927501;29;40151;-80
2023/07/25 12:38:32;;;;;;;3.05;0.57;;;21.10;1.00;;;;;;4932014;29;39296;-81
2023/07/25 12:40:58;;;;;;;0.60;0.30;;;21.30;1.00;;;;;;4922224;29;39116;-81
2023/07/25 12:43:24;;;;;;;1.10;0.40;;;21.60;1.00;;;;;;4918803;29;39190;-81
2023/07/25 12:45:51;;;;;;;1.73;0.40;;;21.10;1.00;;;;;;4913117;29;39408;-82
2023/07/25 12:48:17;;;;;;;1.05;0.40;;;20.90;1.00;;;;;;4925643;29;38025;-81
2023/07/25 12:50:43;;;;;;;1.55;0.30;;;20.80;1.00;;;;;;4918415;29;37185;-81
2023/07/25 12:53:09;;;;;;;1.75;0.40;;;20.90;1.00;;;;;;4910478;29;39147;-81
2023/07/25 12:55:35;;;;;;;1.33;0.40;;;21.00;99.90;;;;;;4923942;29;40082;-81
2023/07/25 12:58:02;;;;;;;1.63;0.45;;;20.70;99.90;;;;;;4918148;28;37639;-82
2023/07/25 13:00:29;;;;;;;1.80;0.55;;;20.30;1.00;;;;;;4916644;28;38486;-82
2023/07/25 13:02:58;;;;;;;2.15;0.70;;;20.30;21.30;;;;;;4920166;29;37835;-82
2023/07/25 13:05:27;;;;;;;0.98;0.43;;;20.60;1.00;;;;;;4914273;29;38071;-82
2023/07/25 13:07:53;;;;;;;2.20;0.45;;;20.70;1.00;;;;;;4919798;29;39591;-82
2023/07/25 13:10:20;;;;;;;4.00;0.40;;;20.60;21.20;;;;;;4919114;29;36995;-81
2023/07/25 13:12:46;;;;;;;1.95;0.50;;;21.10;99.90;;;;;;4927070;29;37767;-82
2023/07/25 13:15:12;;;;;;;3.03;0.50;;;21.20;1.00;;;;;;4916928;29;37882;-82
2023/07/25 13:17:38;;;;;;;1.92;0.40;;;21.60;1.00;;;;;;4914745;29;39215;-81
2023/07/25 13:20:08;;;;;;;3.33;0.50;;;21.10;1.00;;;;;;4917185;29;39215;-81
2023/07/25 13:22:35;;;;;;;0.85;0.30;;;20.40;99.90;;;;;;4915069;29;48180;-83
2023/07/25 13:25:02;;;;;;;0.93;0.38;;;20.60;1.00;;;;;;4935624;28;38751;-83
2023/07/25 13:27:29;;;;;;;3.10;0.80;;;21.20;99.90;;;;;;4921266;29;39531;-82
2023/07/25 13:29:56;;;;;;;2.53;0.43;;;21.70;1.00;;;;;;4932375;28;38241;-82
2023/07/25 13:32:25;;;;;;;3.40;0.60;;;21.40;1.00;;;;;;4919245;29;37667;-82
2023/07/25 13:34:51;;;;;;;3.90;0.60;;;21.30;99.90;;;;;;4925885;29;37847;-82
2023/07/25 13:37:17;;;;;;;3.00;0.40;;;21.70;99.90;;;;;;4925345;29;38645;-82
2023/07/25 13:39:43;;;;;;;2.92;0.30;;;21.70;99.90;;;;;;4931895;28;38359;-82
2023/07/25 13:42:09;;;;;;;1.08;0.60;;;21.80;1.00;;;;;;4918488;29;39327;-81
2023/07/25 13:44:36;;;;;;;2.08;0.50;;;21.40;99.90;;;;;;4923292;29;39455;-82
2023/07/25 13:47:02;;;;;;;2.50;0.50;;;21.00;1.00;;;;;;4922701;29;38320;-82
2023/07/25 13:49:30;;;;;;;2.90;0.50;;;21.10;99.90;;;;;;4922470;29;48174;-82
2023/07/25 13:51:56;;;;;;;3.83;0.50;;;20.90;1.00;;;;;;4920016;29;38028;-81
2023/07/25 13:54:23;;;;;;;3.13;0.40;;;20.90;5.30;;;;;;4918241;29;39736;-83
2023/07/25 13:56:49;;;;;;;1.02;0.50;;;21.30;1.00;;;;;;4931366;29;39139;-82
2023/07/25 13:59:15;;;;;;;3.20;0.60;;;21.30;1.00;;;;;;4928834;29;38841;-82
2023/07/25 14:01:41;;;;;;;3.67;1.05;;;21.30;70.90;;;;;;4924926;29;38018;-82
2023/07/25 14:04:09;;;;;;;2.75;0.60;;;21.20;99.90;;;;;;4924101;28;39513;-83
2023/07/25 14:06:35;;;;;;;1.45;0.50;;;20.80;1.00;;;;;;4922003;29;37618;-82
2023/07/25 14:09:01;;;;;;;1.85;0.47;;;20.30;1.00;;;;;;4935745;29;39015;-83
2023/07/25 14:11:28;;;;;;;1.45;0.50;;;20.50;1.00;;;;;;4930068;29;47156;-83